Time;durP1;ratioP1;P1;durP2;ratioP2;P2;SDS_P1;SDS_P2;PMS_P1;PMS_P2;Temp;Humidity;BMP_temperature;BMP_pressure;BME280_temperature;BME280_humidity;BME280_pressure;Samples;Min_cycle;Max_cycle;Signal;HPM_P1;HPM_P2
2023/07/10 00:01:03;;;;;;;0.30;0.30;;;24.30;68.50;;;;;;5094258;27;20232;-84
2023/07/10 00:03:34;;;;;;;2.15;0.90;;;24.30;68.20;;;;;;5098806;28;20284;-84
2023/07/10 00:06:09;;;;;;;0.40;0.40;;;24.30;68.10;;;;;;5098883;27;20201;-83
2023/07/10 00:08:38;;;;;;;0.40;0.40;;;24.30;68.00;;;;;;5102879;28;20217;-85
2023/07/10 00:11:14;;;;;;;0.32;0.32;;;24.30;67.80;;;;;;5092372;28;20576;-84
2023/07/10 00:13:42;;;;;;;1.42;0.95;;;24.20;68.20;;;;;;5093695;28;20205;-84
2023/07/10 00:16:15;;;;;;;1.10;0.50;;;24.30;68.20;;;;;;5110275;28;20192;-84
2023/07/10 00:18:45;;;;;;;0.40;0.40;;;24.20;68.30;;;;;;5108491;28;20182;-84
2023/07/10 00:21:16;;;;;;;0.98;0.93;;;24.20;68.20;;;;;;5094470;27;20220;-83
2023/07/10 00:23:46;;;;;;;0.20;0.20;;;24.20;68.00;;;;;;5108362;28;20189;-85
2023/07/10 00:26:20;;;;;;;0.30;0.30;;;24.20;68.00;;;;;;5111811;27;20192;-84
2023/07/10 00:28:51;;;;;;;0.52;0.43;;;24.10;67.90;;;;;;5103633;27;20254;-84
2023/07/10 00:31:20;;;;;;;1.58;0.47;;;24.10;67.90;;;;;;5100596;27;20214;-84
2023/07/10 00:33:49;;;;;;;0.82;0.68;;;24.10;67.80;;;;;;5100179;27;20193;-83
2023/07/10 00:36:29;;;;;;;1.00;0.40;;;24.10;67.90;;;;;;5107309;27;20704;-84
2023/07/10 00:38:58;;;;;;;3.40;0.50;;;24.10;68.00;;;;;;5097070;27;20196;-83
2023/07/10 00:41:32;;;;;;;0.50;0.38;;;24.00;68.00;;;;;;5109938;27;20224;-84
2023/07/10 00:44:03;;;;;;;0.20;0.20;;;24.00;68.40;;;;;;5100359;27;20222;-84
2023/07/10 00:46:37;;;;;;;1.05;0.93;;;24.00;68.60;;;;;;5114176;27;20196;-83
2023/07/10 00:49:11;;;;;;;0.75;0.60;;;24.00;68.70;;;;;;5107429;27;20192;-84
2023/07/10 00:51:46;;;;;;;0.30;0.30;;;24.00;68.70;;;;;;5107376;27;20197;-82
2023/07/10 00:54:22;;;;;;;0.22;0.22;;;23.90;68.70;;;;;;5097263;27;20185;-83
2023/07/10 00:56:53;;;;;;;0.88;0.47;;;23.90;68.80;;;;;;5093987;27;20189;-84
2023/07/10 00:59:24;;;;;;;0.80;0.73;;;23.90;68.80;;;;;;5091172;28;20190;-83
2023/07/10 01:02:18;;;;;;;0.40;0.40;;;23.90;68.80;;;;;;5099015;27;22836;-82
2023/07/10 01:04:52;;;;;;;0.20;0.20;;;23.80;69.00;;;;;;5099179;27;20255;-83
2023/07/10 01:07:24;;;;;;;0.38;0.38;;;23.80;69.00;;;;;;5106221;27;20633;-84
2023/07/10 01:09:57;;;;;;;2.15;1.00;;;23.80;69.50;;;;;;5092214;27;20206;-84
2023/07/10 01:12:26;;;;;;;2.00;0.32;;;23.80;69.40;;;;;;5102995;27;20186;-85
2023/07/10 01:14:55;;;;;;;1.25;0.80;;;23.80;69.30;;;;;;5109001;27;20193;-84
2023/07/10 01:17:23;;;;;;;0.50;0.40;;;23.80;69.30;;;;;;5099242;28;20189;-84
2023/07/10 01:19:55;;;;;;;2.55;0.52;;;23.70;69.30;;;;;;5094886;27;20192;-84
2023/07/10 01:22:26;;;;;;;0.95;0.63;;;23.70;69.20;;;;;;5096530;27;20189;-84
2023/07/10 01:24:54;;;;;;;1.25;0.55;;;23.70;69.20;;;;;;5100839;27;20204;-85
2023/07/10 01:27:24;;;;;;;0.40;0.40;;;23.70;69.20;;;;;;5116860;27;20564;-85
2023/07/10 01:30:01;;;;;;;0.52;0.52;;;23.70;69.40;;;;;;5106457;27;20194;-84
2023/07/10 01:32:32;;;;;;;2.10;0.77;;;23.70;69.50;;;;;;5107647;27;20649;-84
2023/07/10 01:35:05;;;;;;;0.73;0.73;;;23.70;69.90;;;;;;5098870;27;20197;-84
2023/07/10 01:37:35;;;;;;;0.50;0.40;;;23.60;70.30;;;;;;5107933;27;20204;-84
2023/07/10 01:40:04;;;;;;;0.85;0.85;;;23.60;70.70;;;;;;5104513;27;20284;-85
2023/07/10 01:42:33;;;;;;;0.35;0.35;;;23.50;70.90;;;;;;5112538;27;20565;-83
2023/07/10 01:45:02;;;;;;;0.95;0.90;;;23.50;70.80;;;;;;5100154;27;20197;-83
2023/07/10 01:47:31;;;;;;;15.98;1.63;;;23.50;71.60;;;;;;5097852;27;20197;-83
2023/07/10 01:50:00;;;;;;;0.70;0.47;;;23.50;72.00;;;;;;5104509;27;20188;-85
2023/07/10 01:52:29;;;;;;;1.58;0.80;;;23.40;72.10;;;;;;5092962;28;20284;-84
2023/07/10 01:54:59;;;;;;;0.38;0.38;;;23.40;72.00;;;;;;5097114;28;20197;-82
2023/07/10 01:57:27;;;;;;;0.47;0.47;;;23.30;72.00;;;;;;5097594;27;20182;-84
2023/07/10 01:59:58;;;;;;;0.50;0.50;;;23.30;72.10;;;;;;5114925;27;20932;-84
2023/07/10 02:02:27;;;;;;;4.13;0.80;;;23.30;73.00;;;;;;5112475;27;20228;-84
2023/07/10 02:04:56;;;;;;;0.55;0.55;;;23.30;73.10;;;;;;5091165;27;20201;-82
2023/07/10 02:07:25;;;;;;;0.50;0.50;;;23.20;73.00;;;;;;5093176;27;20511;-83
2023/07/10 02:09:53;;;;;;;0.50;0.43;;;23.20;72.70;;;;;;5092863;27;20223;-84
2023/07/10 02:12:23;;;;;;;0.50;0.50;;;23.20;73.10;;;;;;5091500;27;20559;-84
2023/07/10 02:14:52;;;;;;;0.68;0.57;;;23.20;73.10;;;;;;5106645;27;20196;-84
2023/07/10 02:17:21;;;;;;;5.40;1.20;;;23.20;72.90;;;;;;5090829;28;20290;-83
2023/07/10 02:19:50;;;;;;;0.73;0.57;;;23.20;73.00;;;;;;5103069;27;20204;-85
2023/07/10 02:22:22;;;;;;;0.95;0.55;;;23.20;73.00;;;;;;5098526;27;20300;-83
2023/07/10 02:24:50;;;;;;;1.95;1.70;;;23.20;72.90;;;;;;5106727;27;20250;-85
2023/07/10 02:27:18;;;;;;;0.73;0.73;;;23.20;72.80;;;;;;5095372;27;20531;-82
2023/07/10 02:29:48;;;;;;;0.73;0.55;;;23.20;72.80;;;;;;5092768;27;20210;-82
2023/07/10 02:32:17;;;;;;;0.40;0.40;;;23.20;72.70;;;;;;5090126;27;20189;-83
2023/07/10 02:34:45;;;;;;;0.75;0.60;;;23.20;72.60;;;;;;5097730;27;20197;-84
2023/07/10 02:37:14;;;;;;;0.50;0.50;;;23.20;73.00;;;;;;5098448;27;20264;-84
2023/07/10 02:39:42;;;;;;;0.50;0.50;;;23.20;72.70;;;;;;5102034;27;20198;-84
2023/07/10 02:42:10;;;;;;;0.47;0.47;;;23.10;72.70;;;;;;5107350;27;20217;-82
2023/07/10 02:44:39;;;;;;;2.10;1.00;;;23.20;72.60;;;;;;5113655;27;20852;-84
2023/07/10 02:47:09;;;;;;;1.02;0.93;;;23.10;72.60;;;;;;5090828;28;20205;-85
2023/07/10 02:49:38;;;;;;;1.77;0.88;;;23.10;72.70;;;;;;5098958;27;20186;-86
2023/07/10 02:52:07;;;;;;;0.77;0.77;;;23.10;72.80;;;;;;5118093;27;20644;-86
2023/07/10 02:54:36;;;;;;;0.68;0.68;;;23.10;72.70;;;;;;5102135;27;20287;-84
2023/07/10 02:57:06;;;;;;;0.30;0.30;;;23.10;73.00;;;;;;5100864;27;20308;-85
2023/07/10 02:59:34;;;;;;;1.10;0.85;;;23.00;72.90;;;;;;5096613;27;20213;-83
2023/07/10 03:02:03;;;;;;;0.63;0.52;;;23.00;72.90;;;;;;5095063;27;20217;-85
2023/07/10 03:04:33;;;;;;;0.35;0.35;;;23.00;72.90;;;;;;5095612;28;20189;-85
2023/07/10 03:07:01;;;;;;;0.65;0.65;;;23.00;73.00;;;;;;5100914;27;20710;-84
2023/07/10 03:09:31;;;;;;;0.30;0.30;;;23.00;73.40;;;;;;5109543;27;20217;-84
2023/07/10 03:11:59;;;;;;;0.60;0.60;;;23.00;73.50;;;;;;5106051;27;20200;-84
2023/07/10 03:14:28;;;;;;;0.43;0.43;;;23.00;73.80;;;;;;5115866;27;20193;-84
2023/07/10 03:16:56;;;;;;;0.60;0.40;;;23.00;73.50;;;;;;5101247;28;20254;-85
2023/07/10 03:19:24;;;;;;;0.60;0.60;;;23.00;74.10;;;;;;5094439;27;20991;-84
2023/07/10 03:21:55;;;;;;;1.40;0.70;;;23.00;74.10;;;;;;5099331;27;20221;-83
2023/07/10 03:24:24;;;;;;;0.50;0.50;;;23.00;74.10;;;;;;5093581;28;20200;-83
2023/07/10 03:26:52;;;;;;;0.60;0.60;;;23.00;74.10;;;;;;5090185;28;20687;-82
2023/07/10 03:29:21;;;;;;;0.68;0.68;;;23.00;73.90;;;;;;5103341;28;20246;-84
2023/07/10 03:31:50;;;;;;;0.60;0.57;;;23.00;74.10;;;;;;5100685;28;20382;-82
2023/07/10 03:34:18;;;;;;;1.25;1.15;;;23.00;74.10;;;;;;5100533;28;20561;-83
2023/07/10 03:36:47;;;;;;;0.30;0.30;;;23.00;74.00;;;;;;5104752;28;20663;-82
2023/07/10 03:39:17;;;;;;;2.83;0.55;;;23.00;73.90;;;;;;5106600;28;20202;-84
2023/07/10 03:41:45;;;;;;;0.25;0.25;;;23.00;74.00;;;;;;5106876;28;20213;-82
2023/07/10 03:44:13;;;;;;;0.85;0.75;;;23.00;74.10;;;;;;5095686;28;20200;-83
2023/07/10 03:46:42;;;;;;;0.63;0.63;;;23.00;73.90;;;;;;5107082;28;20200;-83
2023/07/10 03:49:10;;;;;;;0.77;0.60;;;23.00;73.90;;;;;;5090714;28;20196;-84
2023/07/10 03:51:38;;;;;;;1.33;0.63;;;23.00;73.80;;;;;;5108354;28;20208;-81
2023/07/10 03:54:08;;;;;;;0.50;0.50;;;23.00;73.80;;;;;;5104317;28;20312;-85
2023/07/10 03:56:37;;;;;;;0.82;0.60;;;23.00;73.80;;;;;;5108998;27;20665;-83
2023/07/10 03:59:08;;;;;;;0.73;0.70;;;23.10;74.00;;;;;;5110701;27;20628;-86
2023/07/10 04:01:36;;;;;;;0.68;0.68;;;23.10;73.90;;;;;;5097802;27;20209;-82
2023/07/10 04:04:05;;;;;;;1.35;1.02;;;23.10;73.90;;;;;;5104449;27;20200;-83
2023/07/10 04:06:34;;;;;;;1.10;0.60;;;23.20;74.10;;;;;;5114691;27;20189;-81
2023/07/10 04:09:02;;;;;;;0.75;0.40;;;23.10;73.80;;;;;;5092299;27;20927;-83
2023/07/10 04:11:31;;;;;;;0.57;0.52;;;23.20;74.10;;;;;;5091373;27;20193;-83
2023/07/10 04:14:01;;;;;;;1.55;0.98;;;23.20;74.00;;;;;;5102911;27;20202;-84
2023/07/10 04:16:30;;;;;;;0.40;0.40;;;23.20;73.90;;;;;;5104396;27;20195;-85
2023/07/10 04:18:59;;;;;;;0.50;0.40;;;23.30;74.10;;;;;;5114316;27;20200;-85
2023/07/10 04:21:30;;;;;;;0.40;0.40;;;23.30;74.00;;;;;;5104582;27;20205;-84
2023/07/10 04:23:59;;;;;;;1.35;0.65;;;23.30;74.10;;;;;;5105698;27;20249;-83
2023/07/10 04:26:29;;;;;;;0.63;0.52;;;23.40;74.00;;;;;;5106441;27;20194;-83
2023/07/10 04:29:01;;;;;;;3.10;1.05;;;23.40;74.10;;;;;;5103677;27;20188;-84
2023/07/10 04:31:30;;;;;;;0.70;0.38;;;23.40;74.00;;;;;;5093123;27;20193;-84
2023/07/10 04:33:59;;;;;;;0.55;0.50;;;23.50;73.80;;;;;;5100646;27;20201;-82
2023/07/10 04:36:28;;;;;;;0.30;0.30;;;23.50;73.70;;;;;;5106684;27;20208;-83
2023/07/10 04:38:56;;;;;;;0.47;0.47;;;23.60;73.70;;;;;;5097644;27;20196;-83
2023/07/10 04:41:26;;;;;;;0.43;0.43;;;23.60;73.60;;;;;;5109874;27;20201;-82
2023/07/10 04:43:55;;;;;;;0.30;0.30;;;23.70;73.70;;;;;;5096209;27;20625;-85
2023/07/10 04:46:24;;;;;;;6.25;0.73;;;23.70;73.80;;;;;;5096864;27;20212;-85
2023/07/10 04:48:55;;;;;;;0.30;0.30;;;23.80;73.90;;;;;;5093254;27;20201;-82
2023/07/10 04:51:24;;;;;;;1.65;0.60;;;23.80;74.10;;;;;;5112932;27;20309;-83
2023/07/10 04:53:53;;;;;;;0.32;0.20;;;23.90;74.30;;;;;;5093353;27;20198;-83
2023/07/10 04:56:21;;;;;;;0.47;0.38;;;23.90;74.10;;;;;;5097943;27;20200;-84
2023/07/10 04:58:52;;;;;;;0.98;0.90;;;24.00;74.10;;;;;;5091011;28;20277;-83
2023/07/10 05:01:23;;;;;;;1.58;0.77;;;24.00;74.60;;;;;;5097753;28;20217;-84
2023/07/10 05:03:53;;;;;;;0.32;0.30;;;24.10;73.60;;;;;;5095220;27;21019;-84
2023/07/10 05:06:22;;;;;;;0.75;0.65;;;24.20;73.50;;;;;;5107283;27;20202;-84
2023/07/10 05:08:54;;;;;;;0.52;0.45;;;24.30;73.30;;;;;;5104700;27;20226;-86
2023/07/10 05:11:23;;;;;;;0.57;0.40;;;24.30;73.00;;;;;;5102868;27;20476;-84
2023/07/10 05:13:51;;;;;;;0.47;0.47;;;24.50;72.70;;;;;;5101897;27;20755;-83
2023/07/10 05:16:20;;;;;;;2.55;0.82;;;24.50;72.50;;;;;;5107717;27;20273;-84
2023/07/10 05:18:49;;;;;;;1.75;0.60;;;24.60;72.30;;;;;;5103350;27;20600;-84
2023/07/10 05:21:19;;;;;;;0.32;0.32;;;24.70;72.00;;;;;;5117067;27;20697;-86
2023/07/10 05:23:47;;;;;;;0.40;0.40;;;24.80;71.60;;;;;;5097157;27;20589;-86
2023/07/10 05:26:19;;;;;;;7.57;0.95;;;24.90;71.50;;;;;;5103002;27;20223;-84
2023/07/10 05:28:48;;;;;;;0.45;0.43;;;25.00;71.20;;;;;;5098933;28;20570;-84
2023/07/10 05:31:16;;;;;;;1.50;0.57;;;25.00;70.90;;;;;;5097408;28;20264;-85
2023/07/10 05:33:49;;;;;;;0.90;0.38;;;25.10;70.80;;;;;;5093990;27;20193;-83
2023/07/10 05:36:20;;;;;;;0.43;0.30;;;25.20;70.60;;;;;;5100467;27;20192;-84
2023/07/10 05:38:49;;;;;;;0.85;0.75;;;25.30;70.50;;;;;;5100433;27;20206;-85
2023/07/10 05:41:19;;;;;;;0.22;0.22;;;25.40;70.60;;;;;;5105852;27;20542;-85
2023/07/10 05:43:47;;;;;;;0.57;0.50;;;25.40;70.40;;;;;;5104055;27;20206;-84
2023/07/10 05:46:17;;;;;;;3.15;0.60;;;25.50;69.90;;;;;;5106825;27;20212;-86
2023/07/10 05:48:46;;;;;;;0.43;0.43;;;25.60;69.70;;;;;;5091524;28;20208;-84
2023/07/10 05:51:14;;;;;;;1.25;0.63;;;25.70;69.50;;;;;;5097542;28;20209;-83
2023/07/10 05:53:44;;;;;;;0.22;0.22;;;25.80;69.30;;;;;;5091999;27;20679;-84
2023/07/10 05:56:12;;;;;;;0.50;0.40;;;25.90;69.20;;;;;;5098255;28;20197;-82
2023/07/10 05:58:41;;;;;;;0.85;0.50;;;26.00;69.10;;;;;;5103095;27;20193;-84
2023/07/10 06:01:12;;;;;;;0.50;0.50;;;26.10;68.80;;;;;;5117031;27;20650;-81
2023/07/10 06:03:40;;;;;;;0.32;0.32;;;26.10;68.30;;;;;;5096569;28;20210;-84
2023/07/10 06:06:09;;;;;;;0.50;0.50;;;26.20;68.10;;;;;;5108478;27;20189;-84
2023/07/10 06:08:38;;;;;;;0.20;0.20;;;26.30;68.20;;;;;;5093080;28;20248;-84
2023/07/10 06:11:09;;;;;;;0.28;0.28;;;26.40;68.20;;;;;;5091818;28;20197;-85
2023/07/10 06:13:37;;;;;;;1.20;0.55;;;26.50;68.20;;;;;;5094892;27;20193;-83
2023/07/10 06:16:08;;;;;;;1.77;0.95;;;26.50;67.80;;;;;;5107395;27;20571;-83
2023/07/10 06:18:40;;;;;;;0.30;0.30;;;26.60;67.70;;;;;;5100383;27;20317;-85
2023/07/10 06:21:10;;;;;;;1.27;0.63;;;26.70;67.70;;;;;;5105429;27;20781;-86
2023/07/10 06:23:38;;;;;;;0.20;0.20;;;26.80;67.80;;;;;;5092731;28;20214;-88
2023/07/10 06:26:09;;;;;;;0.32;0.32;;;26.90;67.80;;;;;;5105764;27;20197;-87
2023/07/10 06:28:37;;;;;;;0.20;0.20;;;26.90;67.80;;;;;;5095673;28;20559;-87
2023/07/10 06:31:08;;;;;;;0.30;0.30;;;27.00;67.90;;;;;;5101319;27;20549;-87
2023/07/10 06:33:37;;;;;;;0.47;0.47;;;27.10;67.80;;;;;;5091465;28;20232;-88
2023/07/10 06:36:09;;;;;;;0.20;0.20;;;27.30;67.70;;;;;;5096402;28;20199;-87
2023/07/10 06:38:38;;;;;;;2.58;0.50;;;27.30;67.40;;;;;;5092234;27;20186;-88
2023/07/10 06:41:10;;;;;;;0.63;0.63;;;27.40;65.80;;;;;;5092595;28;20224;-87
2023/07/10 06:43:42;;;;;;;0.93;0.93;;;27.50;64.70;;;;;;5093259;27;20295;-87
2023/07/10 06:46:12;;;;;;;10.45;1.17;;;27.60;63.10;;;;;;5118555;27;20205;-84
2023/07/10 06:48:42;;;;;;;0.60;0.60;;;27.60;61.50;;;;;;5090420;28;20284;-87
2023/07/10 06:51:11;;;;;;;1.40;1.05;;;27.70;61.70;;;;;;5103240;27;20193;-87
2023/07/10 06:53:39;;;;;;;1.17;0.88;;;27.80;60.40;;;;;;5098065;28;20194;-87
2023/07/10 06:56:09;;;;;;;0.77;0.57;;;27.90;60.40;;;;;;5090904;28;20197;-88
2023/07/10 06:58:37;;;;;;;0.47;0.47;;;27.90;59.80;;;;;;5102111;27;20231;-86
2023/07/10 07:01:06;;;;;;;0.75;0.32;;;28.00;58.80;;;;;;5096289;28;20198;-86
2023/07/10 07:03:34;;;;;;;0.40;0.40;;;28.10;59.40;;;;;;5093785;27;20233;-88
2023/07/10 07:06:06;;;;;;;1.23;0.85;;;28.20;59.70;;;;;;5100091;28;20657;-87
2023/07/10 07:08:36;;;;;;;0.40;0.40;;;28.30;59.70;;;;;;5097787;27;20257;-89
2023/07/10 07:11:05;;;;;;;0.47;0.47;;;28.30;59.40;;;;;;5101106;28;20189;-83
2023/07/10 07:13:35;;;;;;;0.63;0.63;;;28.40;58.80;;;;;;5098601;28;20204;-85
2023/07/10 07:16:04;;;;;;;0.65;0.65;;;28.40;58.10;;;;;;5088582;28;20258;-87
2023/07/10 07:18:33;;;;;;;0.30;0.30;;;28.50;58.50;;;;;;5098878;27;20200;-88
2023/07/10 07:21:03;;;;;;;0.45;0.45;;;28.50;57.10;;;;;;5095873;28;20200;-88
2023/07/10 07:23:32;;;;;;;3.85;1.25;;;28.60;58.20;;;;;;5093889;28;20738;-86
2023/07/10 07:26:01;;;;;;;1.60;0.98;;;28.60;57.10;;;;;;5098168;28;20197;-86
2023/07/10 07:28:29;;;;;;;0.82;0.77;;;28.70;57.60;;;;;;5098292;28;20288;-84
2023/07/10 07:31:06;;;;;;;0.85;0.43;;;28.80;57.60;;;;;;5089390;28;20672;-85
2023/07/10 07:33:35;;;;;;;9.38;0.40;;;28.80;57.70;;;;;;5095438;28;20218;-86
2023/07/10 07:36:04;;;;;;;1.25;0.95;;;28.80;56.60;;;;;;5113405;27;20205;-87
2023/07/10 07:38:33;;;;;;;0.80;0.57;;;28.90;56.80;;;;;;5107687;28;20201;-86
2023/07/10 07:41:02;;;;;;;0.30;0.30;;;28.90;56.70;;;;;;5101262;28;20198;-88
2023/07/10 07:43:30;;;;;;;1.08;0.95;;;29.00;56.80;;;;;;5103436;28;20215;-86
2023/07/10 07:45:59;;;;;;;1.00;0.98;;;29.00;56.80;;;;;;5092315;28;20663;-85
2023/07/10 07:48:29;;;;;;;0.98;0.90;;;29.10;56.40;;;;;;5096376;28;20212;-80
2023/07/10 07:50:59;;;;;;;0.30;0.30;;;29.10;55.90;;;;;;5102256;27;20229;-83
2023/07/10 07:53:34;;;;;;;3.00;0.98;;;29.10;55.40;;;;;;5094386;28;20246;-83
2023/07/10 07:56:03;;;;;;;0.88;0.82;;;29.10;56.00;;;;;;5090994;28;20204;-84
2023/07/10 07:58:32;;;;;;;1.92;0.68;;;29.20;56.10;;;;;;5099768;28;20193;-84
2023/07/10 08:01:00;;;;;;;0.63;0.63;;;29.20;54.90;;;;;;5095202;28;20216;-83
2023/07/10 08:03:31;;;;;;;1.35;0.63;;;29.30;55.10;;;;;;5093755;28;20199;-85
2023/07/10 08:06:00;;;;;;;0.30;0.30;;;29.30;54.70;;;;;;5091369;28;20197;-85
2023/07/10 08:08:28;;;;;;;0.60;0.60;;;29.30;54.90;;;;;;5097191;28;20221;-83
2023/07/10 08:10:57;;;;;;;0.40;0.40;;;29.40;55.50;;;;;;5096747;28;20197;-84
2023/07/10 08:13:25;;;;;;;0.40;0.40;;;29.40;55.30;;;;;;5102447;28;20284;-85
2023/07/10 08:15:54;;;;;;;0.75;0.75;;;29.40;55.20;;;;;;5097996;28;20549;-85
2023/07/10 08:18:22;;;;;;;0.75;0.50;;;29.40;53.40;;;;;;5094688;28;20185;-84
2023/07/10 08:20:52;;;;;;;0.55;0.55;;;29.40;53.30;;;;;;5102906;28;20197;-84
2023/07/10 08:23:20;;;;;;;0.20;0.20;;;29.50;54.00;;;;;;5091242;28;20185;-85
2023/07/10 08:25:48;;;;;;;3.80;0.50;;;29.60;53.90;;;;;;5090100;28;20630;-85
2023/07/10 08:28:17;;;;;;;1.73;1.05;;;29.60;53.30;;;;;;5099192;28;20197;-85
2023/07/10 08:30:45;;;;;;;0.60;0.38;;;29.60;53.50;;;;;;5094421;28;20559;-85
2023/07/10 08:33:14;;;;;;;0.35;0.35;;;29.70;53.70;;;;;;5098518;28;20205;-85
2023/07/10 08:35:42;;;;;;;0.30;0.30;;;29.80;52.70;;;;;;5102407;28;20607;-85
2023/07/10 08:38:11;;;;;;;2.97;0.40;;;29.80;53.20;;;;;;5093333;28;20204;-84
2023/07/10 08:40:43;;;;;;;0.30;0.30;;;29.90;52.60;;;;;;5096743;28;20231;-82
2023/07/10 08:43:24;;;;;;;0.30;0.30;;;29.90;51.90;;;;;;5103662;27;20186;-84
2023/07/10 08:45:54;;;;;;;0.30;0.30;;;29.90;52.00;;;;;;5100491;28;20749;-83
2023/07/10 08:48:31;;;;;;;0.75;0.50;;;30.00;51.90;;;;;;5091312;28;20190;-83
2023/07/10 08:51:13;;;;;;;0.50;0.50;;;30.00;51.70;;;;;;5097145;27;20193;-83
2023/07/10 08:53:49;;;;;;;0.40;0.40;;;30.10;51.10;;;;;;5093525;28;20566;-82
2023/07/10 08:56:27;;;;;;;2.13;0.77;;;30.10;50.70;;;;;;5104550;27;20327;-83
2023/07/10 08:59:02;;;;;;;0.38;0.38;;;30.20;51.70;;;;;;5091873;28;20192;-81
2023/07/10 09:01:35;;;;;;;0.52;0.50;;;30.20;52.20;;;;;;5100694;27;20200;-81
2023/07/10 09:04:06;;;;;;;0.20;0.20;;;30.20;51.50;;;;;;5105604;27;20239;-81
2023/07/10 09:06:40;;;;;;;0.55;0.43;;;30.20;51.00;;;;;;5098141;27;20212;-82
2023/07/10 09:09:31;;;;;;;0.40;0.40;;;30.30;51.20;;;;;;5104142;27;20220;-84
2023/07/10 09:12:04;;;;;;;0.85;0.50;;;30.30;51.30;;;;;;5093612;28;20200;-83
2023/07/10 09:14:41;;;;;;;0.52;0.52;;;30.40;51.50;;;;;;5100344;27;20182;-83
2023/07/10 09:17:18;;;;;;;1.33;0.70;;;30.40;51.10;;;;;;5099508;28;20201;-84
2023/07/10 09:19:52;;;;;;;0.30;0.30;;;30.30;48.80;;;;;;5093449;27;20558;-83
2023/07/10 09:22:21;;;;;;;0.30;0.30;;;30.40;50.30;;;;;;5100382;27;20197;-82
2023/07/10 09:24:51;;;;;;;0.65;0.50;;;30.50;50.30;;;;;;5108876;27;20215;-83
2023/07/10 09:27:19;;;;;;;0.77;0.40;;;30.60;50.70;;;;;;5095092;28;20193;-83
2023/07/10 09:29:52;;;;;;;0.57;0.38;;;30.70;50.50;;;;;;5106699;27;20205;-83
2023/07/10 09:32:21;;;;;;;0.43;0.35;;;30.70;50.70;;;;;;5102515;28;20269;-83
2023/07/10 09:34:54;;;;;;;0.30;0.30;;;30.80;51.10;;;;;;5099302;27;20599;-86
2023/07/10 09:37:23;;;;;;;0.73;0.73;;;30.90;51.00;;;;;;5093242;27;20190;-82
2023/07/10 09:39:53;;;;;;;0.60;0.60;;;30.80;49.10;;;;;;5109904;27;20188;-82
2023/07/10 09:42:31;;;;;;;2.17;0.75;;;30.90;49.70;;;;;;5100225;27;20227;-82
2023/07/10 09:45:00;;;;;;;0.38;0.38;;;30.90;49.90;;;;;;5103676;28;20279;-82
2023/07/10 09:47:40;;;;;;;0.30;0.30;;;30.90;49.60;;;;;;5096769;27;20193;-83
2023/07/10 09:50:15;;;;;;;0.65;0.65;;;31.00;49.60;;;;;;5110691;27;20580;-82
2023/07/10 09:52:51;;;;;;;0.50;0.43;;;31.00;49.40;;;;;;5094183;28;20189;-84
2023/07/10 09:55:22;;;;;;;0.40;0.40;;;31.00;49.40;;;;;;5094679;27;20223;-84
2023/07/10 09:57:57;;;;;;;1.55;1.05;;;31.10;49.40;;;;;;5105736;27;20201;-83
2023/07/10 10:00:27;;;;;;;0.68;0.68;;;31.10;47.70;;;;;;5101030;27;20191;-84
2023/07/10 10:02:58;;;;;;;4.32;1.50;;;31.20;48.40;;;;;;5100942;27;20280;-83
2023/07/10 10:05:27;;;;;;;0.40;0.40;;;31.30;48.40;;;;;;5094205;27;20255;-84
2023/07/10 10:08:03;;;;;;;0.40;0.40;;;31.30;48.50;;;;;;5093334;27;20222;-85
2023/07/10 10:10:37;;;;;;;0.52;0.52;;;31.40;48.10;;;;;;5093047;27;20220;-84
2023/07/10 10:13:21;;;;;;;1.25;0.80;;;31.40;47.10;;;;;;5097366;28;20189;-86
2023/07/10 10:16:02;;;;;;;0.40;0.40;;;31.50;47.00;;;;;;5092322;28;20581;-85
2023/07/10 10:18:42;;;;;;;0.95;0.65;;;31.60;47.30;;;;;;5090235;28;20186;-85
2023/07/10 10:21:12;;;;;;;0.85;0.40;;;31.70;47.20;;;;;;5106088;27;20182;-84
2023/07/10 10:23:44;;;;;;;1.58;0.52;;;31.70;47.00;;;;;;5102105;27;20189;-85
2023/07/10 10:26:41;;;;;;;1.33;0.68;;;31.80;46.70;;;;;;5093431;28;20299;-85
2023/07/10 10:29:20;;;;;;;0.40;0.40;;;31.90;46.60;;;;;;5099844;27;20202;-86
2023/07/10 10:31:55;;;;;;;0.50;0.50;;;31.90;46.90;;;;;;5086766;27;20247;-85
2023/07/10 10:34:35;;;;;;;0.75;0.50;;;32.00;46.50;;;;;;5104069;27;20191;-84
2023/07/10 10:37:19;;;;;;;0.57;0.52;;;32.00;46.10;;;;;;5092543;28;20190;-84
2023/07/10 10:39:55;;;;;;;0.40;0.40;;;32.10;46.40;;;;;;5090102;28;20200;-84
2023/07/10 10:42:32;;;;;;;0.40;0.40;;;32.10;46.80;;;;;;5095223;27;20670;-84
2023/07/10 10:45:11;;;;;;;0.63;0.60;;;32.10;46.40;;;;;;5098132;28;20188;-84
2023/07/10 10:47:51;;;;;;;0.30;0.30;;;32.10;46.80;;;;;;5093540;27;20188;-84
2023/07/10 10:50:40;;;;;;;1.35;0.80;;;32.10;46.60;;;;;;5099813;27;20192;-84
2023/07/10 10:53:31;;;;;;;0.57;0.57;;;32.10;46.20;;;;;;5091475;28;20610;-83
2023/07/10 10:56:14;;;;;;;2.08;1.45;;;32.10;45.40;;;;;;5098295;27;20267;-83
2023/07/10 10:58:53;;;;;;;0.30;0.30;;;32.10;45.80;;;;;;5100009;27;20552;-84
2023/07/10 11:01:34;;;;;;;0.60;0.60;;;32.10;46.30;;;;;;5091397;27;20193;-83
2023/07/10 11:04:13;;;;;;;0.50;0.50;;;32.00;45.80;;;;;;5098579;28;20706;-86
2023/07/10 11:06:49;;;;;;;0.30;0.30;;;32.00;46.00;;;;;;5098382;27;20767;-84
2023/07/10 11:09:22;;;;;;;0.40;0.40;;;32.10;46.10;;;;;;5103892;27;20232;-83
2023/07/10 11:11:52;;;;;;;1.35;0.73;;;32.10;45.10;;;;;;5107575;27;20216;-84
2023/07/10 11:14:22;;;;;;;0.50;0.50;;;32.20;44.40;;;;;;5111112;27;20740;-84
2023/07/10 11:16:54;;;;;;;0.40;0.38;;;32.30;45.10;;;;;;5090392;28;20209;-85
2023/07/10 11:19:28;;;;;;;0.52;0.50;;;32.20;43.70;;;;;;5106960;27;20628;-86
2023/07/10 11:21:57;;;;;;;3.70;1.48;;;32.30;44.20;;;;;;5100156;28;20199;-85
2023/07/10 11:24:34;;;;;;;2.65;0.98;;;32.40;44.60;;;;;;5098467;28;20255;-85
2023/07/10 11:27:11;;;;;;;0.82;0.73;;;32.40;44.40;;;;;;5097512;28;20299;-87
2023/07/10 11:29:45;;;;;;;0.65;0.63;;;32.50;45.00;;;;;;5093275;28;20228;-85
2023/07/10 11:32:18;;;;;;;1.67;0.90;;;32.60;44.70;;;;;;5103737;28;20212;-88
2023/07/10 11:34:53;;;;;;;0.55;0.52;;;32.60;44.00;;;;;;5095641;27;20281;-87
2023/07/10 11:37:50;;;;;;;0.60;0.35;;;32.70;43.50;;;;;;5105581;28;20237;-86
2023/07/10 11:40:52;;;;;;;0.32;0.32;;;32.70;44.30;;;;;;5094848;28;20197;-88
2023/07/10 11:43:48;;;;;;;1.73;1.42;;;32.70;44.40;;;;;;5054589;28;20666;-85
2023/07/10 11:46:24;;;;;;;0.63;0.52;;;32.60;44.60;;;;;;5090250;28;20228;-85
2023/07/10 11:49:18;;;;;;;1.35;0.85;;;32.60;44.30;;;;;;5090443;28;20277;-86
2023/07/10 11:52:12;;;;;;;1.77;1.27;;;32.60;44.30;;;;;;5101529;28;20209;-86
2023/07/10 11:54:40;;;;;;;0.75;0.65;;;32.50;44.20;;;;;;5106484;28;20204;-86
2023/07/10 11:57:19;;;;;;;0.60;0.50;;;32.40;44.30;;;;;;5096348;27;20197;-85
2023/07/10 11:59:53;;;;;;;0.50;0.50;;;32.40;44.50;;;;;;5094754;28;20186;-85
2023/07/10 12:02:37;;;;;;;0.60;0.60;;;32.40;44.90;;;;;;5094398;28;20185;-86
2023/07/10 12:05:16;;;;;;;1.33;1.08;;;32.40;44.90;;;;;;5094851;28;20196;-88
2023/07/10 12:07:53;;;;;;;0.47;0.32;;;32.40;45.30;;;;;;5107715;28;20680;-86
2023/07/10 12:10:24;;;;;;;3.92;0.82;;;32.50;45.50;;;;;;5096641;28;20220;-86
2023/07/10 12:12:52;;;;;;;0.75;0.50;;;32.50;45.60;;;;;;5100094;28;20189;-86
2023/07/10 12:15:21;;;;;;;0.55;0.50;;;32.50;45.60;;;;;;5109818;27;20191;-86
2023/07/10 12:17:55;;;;;;;0.32;0.32;;;32.40;44.90;;;;;;5099597;27;20207;-85
2023/07/10 12:20:27;;;;;;;0.70;0.70;;;32.40;45.30;;;;;;5102420;27;20186;-86
2023/07/10 12:22:56;;;;;;;0.60;0.60;;;32.40;45.50;;;;;;5106466;27;21181;-85
2023/07/10 12:25:25;;;;;;;0.50;0.50;;;32.40;45.20;;;;;;5104583;27;20535;-88
2023/07/10 12:27:53;;;;;;;0.55;0.55;;;32.40;44.80;;;;;;5091101;28;20598;-87
2023/07/10 12:30:42;;;;;;;0.45;0.40;;;32.50;44.80;;;;;;5105327;27;20609;-87
2023/07/10 12:33:31;;;;;;;0.43;0.30;;;32.60;44.20;;;;;;5092721;28;20186;-86
2023/07/10 12:36:06;;;;;;;0.57;0.57;;;32.60;44.30;;;;;;5093830;28;20193;-86
2023/07/10 12:38:36;;;;;;;0.43;0.30;;;32.70;44.40;;;;;;5097480;27;20246;-88
2023/07/10 12:41:05;;;;;;;24.73;1.52;;;32.80;44.50;;;;;;5096370;27;20201;-86
2023/07/10 12:43:33;;;;;;;0.75;0.70;;;32.90;43.30;;;;;;5101050;28;20201;-86
2023/07/10 12:46:11;;;;;;;0.60;0.60;;;33.10;43.70;;;;;;5106275;27;20203;-86
2023/07/10 12:48:42;;;;;;;0.43;0.35;;;33.20;43.20;;;;;;5094100;28;20198;-86
2023/07/10 12:51:19;;;;;;;0.47;0.35;;;33.30;43.60;;;;;;5095660;28;20190;-88
2023/07/10 12:53:48;;;;;;;0.30;0.30;;;33.30;43.80;;;;;;5094220;28;20201;-86
2023/07/10 12:56:28;;;;;;;0.30;0.30;;;33.30;43.20;;;;;;5112642;27;20669;-86
2023/07/10 12:59:06;;;;;;;0.65;0.65;;;33.20;43.60;;;;;;5092145;28;20189;-87
2023/07/10 13:01:35;;;;;;;0.28;0.28;;;33.20;43.60;;;;;;5102816;27;20258;-86
2023/07/10 13:04:21;;;;;;;0.43;0.43;;;33.30;43.80;;;;;;5113494;27;20257;-85
2023/07/10 13:07:00;;;;;;;0.43;0.43;;;33.30;42.30;;;;;;5098276;27;20209;-85
2023/07/10 13:09:53;;;;;;;0.30;0.30;;;33.40;42.80;;;;;;5109380;27;20269;-86